Washington, DC (20029)

12:23 PM EDT on August 21, 2014 (GMT -0400)
Pgeng5 | Change Station
CLOSE
Current Station
Personal Weather Station
Location: Capitol Heights, MD
Elevation: 0 ft
Nearby Weather Stations

Elev 0 ft 38.88 °N, 76.91 °W | Updated 0 second ago

Mostly Cloudy
Mostly Cloudy
82.9 °F
Feels Like 90 °F
N
2.7
Wind Variable Wind from South
Gusts 4.7 mph

Today
High -- | Low -- °F
--% Chance of Precip.
Yesterday
High -- | Low -- °F
Precip. -- in
6:26 AM 7:54 PM
Waning Crescent, 13% visible
Pressure 30.04 in
Visibility 10.0 miles
Clouds Few 3000 ft
Mostly Cloudy 25000 ft
Heat Index 90 °F
Dew Point 74 °F
Humidity 75%
Rainfall 0.05 in
Snow Depth Not available.
UV 5 out of 12
Pollen 9.00 out of 12
Air Quality Not available.
Flu Activity Not available.
METAR KDCA 211552Z 17005KT 10SM FEW030 BKN250 28/21 A3004 RMK AO2 SLP173 T02830211

More Conditions Fewer Conditions

Pressure 30.04 in
Visibility 10.0 miles
Clouds Few 3000 ft
Mostly Cloudy 25000 ft
Heat Index 90 °F
Dew Point 74 °F
Humidity 75%
Rainfall 0.05 in
Snow Depth Not available.
UV 5 out of 12
Pollen 9.00 out of 12
Air Quality Not available.
Flu Activity Not available.
METAR KDCA 211552Z 17005KT 10SM FEW030 BKN250 28/21 A3004 RMK AO2 SLP173 T02830211

More Conditions Fewer Conditions

10-Day Weather Forecast

Almanac

Astronomy

Aug. 21, 2014 Rise Set
Actual Time 6:26 AM EDT 7:54 PM EDT
Civil Twilight 5:58 AM EDT 8:22 PM EDT
Nautical Twilight 5:25 AM EDT 8:55 PM EDT
Astronomical Twilight 4:49 AM EDT 9:31 PM EDT
Moon 2:56 AM EDT 5:20 PM EDT
Length of Visible Light 14h 23m
Length of Day
13h 27m
Tomorrow will be 2m 19s shorter.
Waning Crescent, 13% of the Moon is Illuminated
Today
Waning Crescent
Aug 25
New
Sep 2
First Quarter
Sep 8
Full
Sep 15
Last Quarter

Today's Extremes

State Highs State Lows

Community

WunderPhotos

Upload Photos

1,745,955 photos uploaded!

Nearby

Snow Depth

Station Depth Elevation
No new snow has been reported.

Earthquake Activity

City Distance Mag. Time & Date
No recent earthquake activity has been reported nearby.
Minimum magnitude displayed is 2.5.

Coastal Water Temperatures

Place Temperature
Washington, DC 78.1 °F
Baltimore, MD 80.1 °F
Solomons Island, MD 81.0 °F

Nearby Weather Stations